Terminal Aerodrome Forecast
Issued by NWS

Home | Current Version | Previous Version | Graphics & Text | Print | Product List | Glossary On
Versions: 1 2 3 4 5 6 7 8 9 10 11 12 13 14 15 16 17 18 19 20 21
000
FTUS43 KABR 252303 AAB
TAFMBG
TAF AMD
KMBG 252303Z 2523/2618 19012KT P6SM SKC
     FM260500 30014KT P6SM BKN250
     FM260600 35017G24KT P6SM BKN200
     FM261300 35011KT P6SM FEW250=

USA.gov is the U.S. government's official web portal to all federal, state and local government web resources and services.